sensor_id;sensor_type;location;lat;lon;timestamp;P1;durP1;ratioP1;P2;durP2;ratioP2
215;SDS011;64590;48.81286795;9.14184224;2022-11-13T00:01:18;38.40;;;20.33;;
215;SDS011;64590;48.81286795;9.14184224;2022-11-13T00:04:06;35.80;;;19.98;;
215;SDS011;64590;48.81286795;9.14184224;2022-11-13T00:06:51;40.67;;;20.27;;
215;SDS011;64590;48.81286795;9.14184224;2022-11-13T00:09:36;35.10;;;18.75;;
215;SDS011;64590;48.81286795;9.14184224;2022-11-13T00:12:21;38.30;;;19.92;;
215;SDS011;64590;48.81286795;9.14184224;2022-11-13T00:15:06;38.70;;;19.90;;
215;SDS011;64590;48.81286795;9.14184224;2022-11-13T00:17:52;35.58;;;18.95;;
215;SDS011;64590;48.81286795;9.14184224;2022-11-13T00:20:39;41.15;;;19.30;;
215;SDS011;64590;48.81286795;9.14184224;2022-11-13T00:23:24;41.60;;;19.92;;
215;SDS011;64590;48.81286795;9.14184224;2022-11-13T00:26:10;33.17;;;18.83;;
215;SDS011;64590;48.81286795;9.14184224;2022-11-13T00:28:57;34.73;;;19.30;;
215;SDS011;64590;48.81286795;9.14184224;2022-11-13T00:31:44;31.83;;;18.95;;
215;SDS011;64590;48.81286795;9.14184224;2022-11-13T00:34:29;33.53;;;18.00;;
215;SDS011;64590;48.81286795;9.14184224;2022-11-13T00:37:16;34.47;;;18.25;;
215;SDS011;64590;48.81286795;9.14184224;2022-11-13T00:40:01;29.55;;;16.98;;
215;SDS011;64590;48.81286795;9.14184224;2022-11-13T00:42:46;39.65;;;18.88;;
215;SDS011;64590;48.81286795;9.14184224;2022-11-13T00:45:32;38.97;;;19.37;;
215;SDS011;64590;48.81286795;9.14184224;2022-11-13T00:48:17;56.17;;;20.33;;
215;SDS011;64590;48.81286795;9.14184224;2022-11-13T00:51:02;41.83;;;20.08;;
215;SDS011;64590;48.81286795;9.14184224;2022-11-13T00:53:50;36.15;;;19.38;;
215;SDS011;64590;48.81286795;9.14184224;2022-11-13T00:56:35;37.22;;;20.63;;
215;SDS011;64590;48.81286795;9.14184224;2022-11-13T00:59:20;39.83;;;19.77;;
215;SDS011;64590;48.81286795;9.14184224;2022-11-13T01:02:05;56.67;;;21.05;;
215;SDS011;64590;48.81286795;9.14184224;2022-11-13T01:04:51;38.60;;;20.30;;
215;SDS011;64590;48.81286795;9.14184224;2022-11-13T01:07:36;39.13;;;21.00;;
215;SDS011;64590;48.81286795;9.14184224;2022-11-13T01:10:23;39.43;;;19.40;;
215;SDS011;64590;48.81286795;9.14184224;2022-11-13T01:13:08;37.33;;;20.23;;
215;SDS011;64590;48.81286795;9.14184224;2022-11-13T01:15:53;37.15;;;19.25;;
215;SDS011;64590;48.81286795;9.14184224;2022-11-13T01:18:38;36.73;;;19.00;;
215;SDS011;64590;48.81286795;9.14184224;2022-11-13T01:21:26;36.85;;;19.27;;
215;SDS011;64590;48.81286795;9.14184224;2022-11-13T01:24:12;34.25;;;18.67;;
215;SDS011;64590;48.81286795;9.14184224;2022-11-13T01:26:59;33.30;;;18.10;;
215;SDS011;64590;48.81286795;9.14184224;2022-11-13T01:29:44;35.35;;;18.55;;
215;SDS011;64590;48.81286795;9.14184224;2022-11-13T01:32:29;33.80;;;18.45;;
215;SDS011;64590;48.81286795;9.14184224;2022-11-13T01:35:14;35.97;;;18.33;;
215;SDS011;64590;48.81286795;9.14184224;2022-11-13T01:37:59;35.63;;;18.15;;
215;SDS011;64590;48.81286795;9.14184224;2022-11-13T01:40:44;34.85;;;19.05;;
215;SDS011;64590;48.81286795;9.14184224;2022-11-13T01:43:31;32.65;;;17.80;;
215;SDS011;64590;48.81286795;9.14184224;2022-11-13T01:46:20;32.70;;;18.52;;
215;SDS011;64590;48.81286795;9.14184224;2022-11-13T01:49:14;33.63;;;19.30;;
215;SDS011;64590;48.81286795;9.14184224;2022-11-13T01:52:10;33.30;;;17.45;;
215;SDS011;64590;48.81286795;9.14184224;2022-11-13T01:54:58;33.88;;;17.00;;
215;SDS011;64590;48.81286795;9.14184224;2022-11-13T01:57:46;35.05;;;17.60;;
215;SDS011;64590;48.81286795;9.14184224;2022-11-13T02:00:33;32.97;;;16.85;;
215;SDS011;64590;48.81286795;9.14184224;2022-11-13T02:03:18;34.00;;;18.00;;
215;SDS011;64590;48.81286795;9.14184224;2022-11-13T02:06:03;33.58;;;17.90;;
215;SDS011;64590;48.81286795;9.14184224;2022-11-13T02:08:49;38.22;;;18.13;;
215;SDS011;64590;48.81286795;9.14184224;2022-11-13T02:11:36;34.15;;;18.13;;
215;SDS011;64590;48.81286795;9.14184224;2022-11-13T02:14:22;32.90;;;17.50;;
215;SDS011;64590;48.81286795;9.14184224;2022-11-13T02:17:12;31.30;;;17.48;;
215;SDS011;64590;48.81286795;9.14184224;2022-11-13T02:20:00;36.00;;;19.23;;
215;SDS011;64590;48.81286795;9.14184224;2022-11-13T02:22:49;38.10;;;18.55;;
215;SDS011;64590;48.81286795;9.14184224;2022-11-13T02:25:42;38.60;;;18.70;;
215;SDS011;64590;48.81286795;9.14184224;2022-11-13T02:28:29;35.25;;;17.63;;
215;SDS011;64590;48.81286795;9.14184224;2022-11-13T02:31:14;33.13;;;18.05;;
215;SDS011;64590;48.81286795;9.14184224;2022-11-13T02:34:00;38.55;;;18.95;;
215;SDS011;64590;48.81286795;9.14184224;2022-11-13T02:36:46;35.55;;;18.40;;
215;SDS011;64590;48.81286795;9.14184224;2022-11-13T02:39:31;38.80;;;19.20;;
215;SDS011;64590;48.81286795;9.14184224;2022-11-13T02:42:17;36.22;;;19.45;;
215;SDS011;64590;48.81286795;9.14184224;2022-11-13T02:45:03;56.00;;;20.15;;
215;SDS011;64590;48.81286795;9.14184224;2022-11-13T02:47:49;38.50;;;19.38;;
215;SDS011;64590;48.81286795;9.14184224;2022-11-13T02:50:34;53.35;;;19.33;;
215;SDS011;64590;48.81286795;9.14184224;2022-11-13T02:53:21;92.45;;;20.60;;
215;SDS011;64590;48.81286795;9.14184224;2022-11-13T02:56:06;80.63;;;21.23;;
215;SDS011;64590;48.81286795;9.14184224;2022-11-13T02:58:53;54.28;;;19.65;;
215;SDS011;64590;48.81286795;9.14184224;2022-11-13T03:01:38;53.33;;;20.27;;
215;SDS011;64590;48.81286795;9.14184224;2022-11-13T03:04:23;40.78;;;19.75;;
215;SDS011;64590;48.81286795;9.14184224;2022-11-13T03:07:09;41.28;;;19.00;;
215;SDS011;64590;48.81286795;9.14184224;2022-11-13T03:09:54;59.55;;;20.50;;
215;SDS011;64590;48.81286795;9.14184224;2022-11-13T03:12:40;46.38;;;20.20;;
215;SDS011;64590;48.81286795;9.14184224;2022-11-13T03:15:26;43.70;;;21.33;;
215;SDS011;64590;48.81286795;9.14184224;2022-11-13T03:18:11;44.03;;;20.42;;
215;SDS011;64590;48.81286795;9.14184224;2022-11-13T03:20:57;40.17;;;19.60;;
215;SDS011;64590;48.81286795;9.14184224;2022-11-13T03:23:50;35.42;;;18.23;;
215;SDS011;64590;48.81286795;9.14184224;2022-11-13T03:26:37;38.53;;;18.30;;
215;SDS011;64590;48.81286795;9.14184224;2022-11-13T03:29:22;61.03;;;18.60;;
215;SDS011;64590;48.81286795;9.14184224;2022-11-13T03:32:08;76.50;;;18.65;;
215;SDS011;64590;48.81286795;9.14184224;2022-11-13T03:34:53;57.08;;;18.73;;
215;SDS011;64590;48.81286795;9.14184224;2022-11-13T03:37:39;52.90;;;18.38;;
215;SDS011;64590;48.81286795;9.14184224;2022-11-13T03:40:24;39.35;;;17.75;;
215;SDS011;64590;48.81286795;9.14184224;2022-11-13T03:43:09;33.03;;;17.10;;
215;SDS011;64590;48.81286795;9.14184224;2022-11-13T03:45:55;31.40;;;16.63;;
215;SDS011;64590;48.81286795;9.14184224;2022-11-13T03:48:41;30.58;;;16.70;;
215;SDS011;64590;48.81286795;9.14184224;2022-11-13T03:51:26;53.80;;;17.20;;
215;SDS011;64590;48.81286795;9.14184224;2022-11-13T03:54:12;74.55;;;17.38;;
215;SDS011;64590;48.81286795;9.14184224;2022-11-13T03:56:57;52.03;;;16.55;;
215;SDS011;64590;48.81286795;9.14184224;2022-11-13T03:59:42;31.63;;;15.88;;
215;SDS011;64590;48.81286795;9.14184224;2022-11-13T04:02:27;31.08;;;16.17;;
215;SDS011;64590;48.81286795;9.14184224;2022-11-13T04:05:14;27.98;;;16.25;;
215;SDS011;64590;48.81286795;9.14184224;2022-11-13T04:07:59;42.13;;;16.90;;
215;SDS011;64590;48.81286795;9.14184224;2022-11-13T04:10:44;55.17;;;17.05;;
215;SDS011;64590;48.81286795;9.14184224;2022-11-13T04:13:30;30.08;;;16.15;;
215;SDS011;64590;48.81286795;9.14184224;2022-11-13T04:16:15;46.35;;;16.65;;
215;SDS011;64590;48.81286795;9.14184224;2022-11-13T04:19:00;81.55;;;17.77;;
215;SDS011;64590;48.81286795;9.14184224;2022-11-13T04:21:46;55.78;;;17.20;;
215;SDS011;64590;48.81286795;9.14184224;2022-11-13T04:24:31;41.70;;;17.08;;
215;SDS011;64590;48.81286795;9.14184224;2022-11-13T04:27:16;38.13;;;17.00;;
215;SDS011;64590;48.81286795;9.14184224;2022-11-13T04:30:02;28.73;;;16.00;;
215;SDS011;64590;48.81286795;9.14184224;2022-11-13T04:32:48;27.40;;;15.90;;
215;SDS011;64590;48.81286795;9.14184224;2022-11-13T04:35:33;27.17;;;15.57;;
215;SDS011;64590;48.81286795;9.14184224;2022-11-13T04:38:20;108.63;;;17.40;;
215;SDS011;64590;48.81286795;9.14184224;2022-11-13T04:41:05;30.52;;;16.48;;
215;SDS011;64590;48.81286795;9.14184224;2022-11-13T04:44:08;68.93;;;17.55;;
215;SDS011;64590;48.81286795;9.14184224;2022-11-13T04:46:53;31.35;;;16.35;;
215;SDS011;64590;48.81286795;9.14184224;2022-11-13T04:49:38;32.20;;;16.80;;
215;SDS011;64590;48.81286795;9.14184224;2022-11-13T04:52:23;27.40;;;15.48;;
215;SDS011;64590;48.81286795;9.14184224;2022-11-13T04:55:10;28.38;;;14.80;;
215;SDS011;64590;48.81286795;9.14184224;2022-11-13T04:57:56;27.40;;;15.13;;
215;SDS011;64590;48.81286795;9.14184224;2022-11-13T05:00:41;63.97;;;16.15;;
215;SDS011;64590;48.81286795;9.14184224;2022-11-13T05:03:26;93.50;;;17.23;;
215;SDS011;64590;48.81286795;9.14184224;2022-11-13T05:06:11;56.08;;;16.65;;
215;SDS011;64590;48.81286795;9.14184224;2022-11-13T05:08:57;45.72;;;16.48;;
215;SDS011;64590;48.81286795;9.14184224;2022-11-13T05:11:43;49.83;;;16.25;;
215;SDS011;64590;48.81286795;9.14184224;2022-11-13T05:14:28;42.17;;;16.77;;
215;SDS011;64590;48.81286795;9.14184224;2022-11-13T05:17:14;43.83;;;15.43;;
215;SDS011;64590;48.81286795;9.14184224;2022-11-13T05:19:59;44.35;;;15.88;;
215;SDS011;64590;48.81286795;9.14184224;2022-11-13T05:22:44;57.03;;;16.27;;
215;SDS011;64590;48.81286795;9.14184224;2022-11-13T05:25:30;37.50;;;15.77;;
215;SDS011;64590;48.81286795;9.14184224;2022-11-13T05:28:16;44.95;;;15.75;;
215;SDS011;64590;48.81286795;9.14184224;2022-11-13T05:31:03;46.85;;;16.20;;
215;SDS011;64590;48.81286795;9.14184224;2022-11-13T05:33:49;42.00;;;15.35;;
215;SDS011;64590;48.81286795;9.14184224;2022-11-13T05:36:34;34.40;;;15.30;;
215;SDS011;64590;48.81286795;9.14184224;2022-11-13T05:39:19;35.65;;;17.02;;
215;SDS011;64590;48.81286795;9.14184224;2022-11-13T05:42:05;65.70;;;16.58;;
215;SDS011;64590;48.81286795;9.14184224;2022-11-13T05:44:51;71.03;;;16.33;;
215;SDS011;64590;48.81286795;9.14184224;2022-11-13T05:47:36;63.83;;;16.45;;
215;SDS011;64590;48.81286795;9.14184224;2022-11-13T05:50:22;86.07;;;16.98;;
215;SDS011;64590;48.81286795;9.14184224;2022-11-13T05:53:07;55.92;;;16.73;;
215;SDS011;64590;48.81286795;9.14184224;2022-11-13T05:55:52;124.95;;;17.23;;
215;SDS011;64590;48.81286795;9.14184224;2022-11-13T05:58:38;149.60;;;17.48;;
215;SDS011;64590;48.81286795;9.14184224;2022-11-13T06:01:26;215.35;;;18.77;;
215;SDS011;64590;48.81286795;9.14184224;2022-11-13T06:04:13;129.32;;;18.98;;
215;SDS011;64590;48.81286795;9.14184224;2022-11-13T06:06:58;210.73;;;19.15;;
215;SDS011;64590;48.81286795;9.14184224;2022-11-13T06:09:43;110.25;;;17.95;;
215;SDS011;64590;48.81286795;9.14184224;2022-11-13T06:12:28;96.57;;;18.58;;
215;SDS011;64590;48.81286795;9.14184224;2022-11-13T06:15:14;143.07;;;19.40;;
215;SDS011;64590;48.81286795;9.14184224;2022-11-13T06:18:01;130.07;;;18.55;;
215;SDS011;64590;48.81286795;9.14184224;2022-11-13T06:20:46;84.60;;;17.90;;
215;SDS011;64590;48.81286795;9.14184224;2022-11-13T06:23:31;54.00;;;17.40;;
215;SDS011;64590;48.81286795;9.14184224;2022-11-13T06:26:19;75.80;;;16.83;;
215;SDS011;64590;48.81286795;9.14184224;2022-11-13T06:29:06;52.20;;;17.10;;
215;SDS011;64590;48.81286795;9.14184224;2022-11-13T06:31:53;74.28;;;16.50;;
215;SDS011;64590;48.81286795;9.14184224;2022-11-13T06:34:40;107.63;;;16.77;;
215;SDS011;64590;48.81286795;9.14184224;2022-11-13T06:37:25;88.78;;;17.35;;
215;SDS011;64590;48.81286795;9.14184224;2022-11-13T06:40:10;51.15;;;16.52;;
215;SDS011;64590;48.81286795;9.14184224;2022-11-13T06:42:57;223.40;;;18.70;;
215;SDS011;64590;48.81286795;9.14184224;2022-11-13T06:45:42;74.82;;;17.75;;
215;SDS011;64590;48.81286795;9.14184224;2022-11-13T06:48:27;146.52;;;19.00;;
215;SDS011;64590;48.81286795;9.14184224;2022-11-13T06:51:14;109.70;;;18.27;;
215;SDS011;64590;48.81286795;9.14184224;2022-11-13T06:54:02;81.07;;;16.70;;
215;SDS011;64590;48.81286795;9.14184224;2022-11-13T06:56:47;120.97;;;17.08;;
215;SDS011;64590;48.81286795;9.14184224;2022-11-13T06:59:32;192.13;;;17.67;;
215;SDS011;64590;48.81286795;9.14184224;2022-11-13T07:02:17;57.65;;;14.93;;
215;SDS011;64590;48.81286795;9.14184224;2022-11-13T07:05:03;55.88;;;14.60;;
215;SDS011;64590;48.81286795;9.14184224;2022-11-13T07:07:50;138.73;;;16.50;;
215;SDS011;64590;48.81286795;9.14184224;2022-11-13T07:10:35;45.75;;;14.38;;
215;SDS011;64590;48.81286795;9.14184224;2022-11-13T07:13:21;29.60;;;13.70;;
215;SDS011;64590;48.81286795;9.14184224;2022-11-13T07:16:08;177.13;;;16.85;;
215;SDS011;64590;48.81286795;9.14184224;2022-11-13T07:18:54;67.50;;;14.98;;
215;SDS011;64590;48.81286795;9.14184224;2022-11-13T07:21:39;65.05;;;14.00;;
215;SDS011;64590;48.81286795;9.14184224;2022-11-13T07:24:25;108.40;;;14.82;;
215;SDS011;64590;48.81286795;9.14184224;2022-11-13T07:27:11;78.70;;;15.00;;
215;SDS011;64590;48.81286795;9.14184224;2022-11-13T07:29:56;97.57;;;14.20;;
215;SDS011;64590;48.81286795;9.14184224;2022-11-13T07:32:41;109.55;;;15.95;;
215;SDS011;64590;48.81286795;9.14184224;2022-11-13T07:35:26;34.65;;;12.80;;
215;SDS011;64590;48.81286795;9.14184224;2022-11-13T07:38:11;39.00;;;13.45;;
215;SDS011;64590;48.81286795;9.14184224;2022-11-13T07:40:58;123.75;;;14.55;;
215;SDS011;64590;48.81286795;9.14184224;2022-11-13T07:43:43;105.05;;;14.40;;
215;SDS011;64590;48.81286795;9.14184224;2022-11-13T07:46:29;40.05;;;13.13;;
215;SDS011;64590;48.81286795;9.14184224;2022-11-13T07:49:14;67.72;;;13.90;;
215;SDS011;64590;48.81286795;9.14184224;2022-11-13T07:51:59;87.10;;;14.50;;
215;SDS011;64590;48.81286795;9.14184224;2022-11-13T07:54:45;36.88;;;13.13;;
215;SDS011;64590;48.81286795;9.14184224;2022-11-13T07:57:31;43.45;;;12.48;;
215;SDS011;64590;48.81286795;9.14184224;2022-11-13T08:00:16;66.72;;;12.93;;
215;SDS011;64590;48.81286795;9.14184224;2022-11-13T08:03:05;44.95;;;13.07;;
215;SDS011;64590;48.81286795;9.14184224;2022-11-13T08:05:51;40.70;;;13.38;;
215;SDS011;64590;48.81286795;9.14184224;2022-11-13T08:08:37;28.77;;;12.50;;
215;SDS011;64590;48.81286795;9.14184224;2022-11-13T08:11:22;83.25;;;13.15;;
215;SDS011;64590;48.81286795;9.14184224;2022-11-13T08:14:09;42.30;;;13.70;;
215;SDS011;64590;48.81286795;9.14184224;2022-11-13T08:16:54;41.78;;;13.68;;
215;SDS011;64590;48.81286795;9.14184224;2022-11-13T08:19:39;158.20;;;15.60;;
215;SDS011;64590;48.81286795;9.14184224;2022-11-13T08:22:24;62.58;;;14.00;;
215;SDS011;64590;48.81286795;9.14184224;2022-11-13T08:25:09;119.22;;;15.07;;
215;SDS011;64590;48.81286795;9.14184224;2022-11-13T08:27:54;91.93;;;15.30;;
215;SDS011;64590;48.81286795;9.14184224;2022-11-13T08:30:43;136.38;;;16.70;;
215;SDS011;64590;48.81286795;9.14184224;2022-11-13T08:33:29;153.27;;;16.73;;
215;SDS011;64590;48.81286795;9.14184224;2022-11-13T08:36:14;99.28;;;15.75;;
215;SDS011;64590;48.81286795;9.14184224;2022-11-13T08:38:59;41.05;;;15.45;;
215;SDS011;64590;48.81286795;9.14184224;2022-11-13T08:41:45;46.50;;;14.85;;
215;SDS011;64590;48.81286795;9.14184224;2022-11-13T08:44:30;58.85;;;15.77;;
215;SDS011;64590;48.81286795;9.14184224;2022-11-13T08:47:17;31.08;;;15.35;;
215;SDS011;64590;48.81286795;9.14184224;2022-11-13T08:50:02;150.18;;;16.85;;
215;SDS011;64590;48.81286795;9.14184224;2022-11-13T08:52:52;46.55;;;16.70;;
215;SDS011;64590;48.81286795;9.14184224;2022-11-13T08:55:38;37.80;;;15.45;;
215;SDS011;64590;48.81286795;9.14184224;2022-11-13T08:58:23;35.90;;;15.65;;
215;SDS011;64590;48.81286795;9.14184224;2022-11-13T09:01:08;41.72;;;15.25;;
215;SDS011;64590;48.81286795;9.14184224;2022-11-13T09:03:55;64.93;;;16.67;;
215;SDS011;64590;48.81286795;9.14184224;2022-11-13T09:06:41;40.85;;;16.85;;
215;SDS011;64590;48.81286795;9.14184224;2022-11-13T09:09:26;45.53;;;17.80;;
215;SDS011;64590;48.81286795;9.14184224;2022-11-13T09:12:12;42.55;;;17.00;;
215;SDS011;64590;48.81286795;9.14184224;2022-11-13T09:14:57;30.98;;;16.13;;
215;SDS011;64590;48.81286795;9.14184224;2022-11-13T09:17:42;46.22;;;17.20;;
215;SDS011;64590;48.81286795;9.14184224;2022-11-13T09:20:29;41.10;;;17.17;;
215;SDS011;64590;48.81286795;9.14184224;2022-11-13T09:23:16;37.53;;;16.67;;
215;SDS011;64590;48.81286795;9.14184224;2022-11-13T09:26:01;36.25;;;15.52;;
215;SDS011;64590;48.81286795;9.14184224;2022-11-13T09:28:46;32.42;;;16.40;;
215;SDS011;64590;48.81286795;9.14184224;2022-11-13T09:31:32;28.45;;;15.10;;
215;SDS011;64590;48.81286795;9.14184224;2022-11-13T09:34:17;47.70;;;17.80;;
215;SDS011;64590;48.81286795;9.14184224;2022-11-13T09:37:04;43.70;;;17.00;;
215;SDS011;64590;48.81286795;9.14184224;2022-11-13T09:39:49;36.47;;;17.35;;
215;SDS011;64590;48.81286795;9.14184224;2022-11-13T09:42:34;30.90;;;16.90;;
215;SDS011;64590;48.81286795;9.14184224;2022-11-13T09:45:24;27.73;;;16.60;;
215;SDS011;64590;48.81286795;9.14184224;2022-11-13T09:48:12;28.65;;;16.15;;
215;SDS011;64590;48.81286795;9.14184224;2022-11-13T09:51:05;28.90;;;16.73;;
215;SDS011;64590;48.81286795;9.14184224;2022-11-13T09:53:57;30.30;;;16.80;;
215;SDS011;64590;48.81286795;9.14184224;2022-11-13T09:56:50;28.15;;;16.55;;
215;SDS011;64590;48.81286795;9.14184224;2022-11-13T09:59:43;26.50;;;16.23;;
215;SDS011;64590;48.81286795;9.14184224;2022-11-13T10:02:36;25.15;;;15.20;;
215;SDS011;64590;48.81286795;9.14184224;2022-11-13T10:05:34;26.00;;;15.10;;
215;SDS011;64590;48.81286795;9.14184224;2022-11-13T10:08:28;25.10;;;15.53;;
215;SDS011;64590;48.81286795;9.14184224;2022-11-13T10:11:18;27.27;;;16.15;;
215;SDS011;64590;48.81286795;9.14184224;2022-11-13T10:14:11;27.27;;;15.82;;
215;SDS011;64590;48.81286795;9.14184224;2022-11-13T10:17:03;25.38;;;15.15;;
215;SDS011;64590;48.81286795;9.14184224;2022-11-13T10:19:54;24.90;;;15.40;;
215;SDS011;64590;48.81286795;9.14184224;2022-11-13T10:22:43;26.23;;;15.18;;
215;SDS011;64590;48.81286795;9.14184224;2022-11-13T10:25:34;25.60;;;15.37;;
215;SDS011;64590;48.81286795;9.14184224;2022-11-13T10:28:23;26.17;;;16.00;;
215;SDS011;64590;48.81286795;9.14184224;2022-11-13T10:31:11;23.60;;;15.20;;
215;SDS011;64590;48.81286795;9.14184224;2022-11-13T10:33:56;22.73;;;14.50;;
215;SDS011;64590;48.81286795;9.14184224;2022-11-13T10:36:44;24.33;;;14.63;;
215;SDS011;64590;48.81286795;9.14184224;2022-11-13T10:39:42;25.07;;;15.40;;
215;SDS011;64590;48.81286795;9.14184224;2022-11-13T10:42:28;25.30;;;15.60;;
215;SDS011;64590;48.81286795;9.14184224;2022-11-13T10:45:22;25.70;;;15.50;;
215;SDS011;64590;48.81286795;9.14184224;2022-11-13T10:48:17;25.37;;;16.17;;
215;SDS011;64590;48.81286795;9.14184224;2022-11-13T10:51:04;24.23;;;14.80;;
215;SDS011;64590;48.81286795;9.14184224;2022-11-13T10:54:15;28.50;;;16.67;;
215;SDS011;64590;48.81286795;9.14184224;2022-11-13T10:57:18;27.00;;;16.43;;
215;SDS011;64590;48.81286795;9.14184224;2022-11-13T11:00:21;26.90;;;15.87;;
215;SDS011;64590;48.81286795;9.14184224;2022-11-13T11:03:13;28.27;;;16.03;;
215;SDS011;64590;48.81286795;9.14184224;2022-11-13T11:06:00;25.40;;;15.57;;
215;SDS011;64590;48.81286795;9.14184224;2022-11-13T11:08:46;24.50;;;14.90;;
215;SDS011;64590;48.81286795;9.14184224;2022-11-13T11:11:32;25.63;;;15.30;;
215;SDS011;64590;48.81286795;9.14184224;2022-11-13T11:14:37;25.33;;;15.80;;
215;SDS011;64590;48.81286795;9.14184224;2022-11-13T11:17:28;23.83;;;14.80;;
215;SDS011;64590;48.81286795;9.14184224;2022-11-13T11:23:29;20.97;;;13.13;;
215;SDS011;64590;48.81286795;9.14184224;2022-11-13T11:26:22;22.87;;;14.20;;
215;SDS011;64590;48.81286795;9.14184224;2022-11-13T11:29:15;24.83;;;15.10;;
215;SDS011;64590;48.81286795;9.14184224;2022-11-13T11:32:06;27.03;;;15.20;;
215;SDS011;64590;48.81286795;9.14184224;2022-11-13T11:35:00;25.37;;;14.83;;
215;SDS011;64590;48.81286795;9.14184224;2022-11-13T11:37:53;25.77;;;15.90;;
215;SDS011;64590;48.81286795;9.14184224;2022-11-13T11:40:42;57.47;;;30.80;;
215;SDS011;64590;48.81286795;9.14184224;2022-11-13T11:43:33;33.40;;;19.30;;
215;SDS011;64590;48.81286795;9.14184224;2022-11-13T11:46:24;28.13;;;17.40;;
215;SDS011;64590;48.81286795;9.14184224;2022-11-13T11:49:11;25.67;;;15.77;;
215;SDS011;64590;48.81286795;9.14184224;2022-11-13T11:52:01;28.53;;;17.43;;
215;SDS011;64590;48.81286795;9.14184224;2022-11-13T11:55:01;23.50;;;15.20;;
215;SDS011;64590;48.81286795;9.14184224;2022-11-13T11:58:00;24.10;;;15.60;;
215;SDS011;64590;48.81286795;9.14184224;2022-11-13T12:01:00;25.10;;;15.00;;
215;SDS011;64590;48.81286795;9.14184224;2022-11-13T12:03:56;28.53;;;14.63;;
215;SDS011;64590;48.81286795;9.14184224;2022-11-13T12:06:53;23.23;;;14.10;;
215;SDS011;64590;48.81286795;9.14184224;2022-11-13T12:09:50;23.50;;;14.63;;
215;SDS011;64590;48.81286795;9.14184224;2022-11-13T12:12:46;23.07;;;13.80;;
215;SDS011;64590;48.81286795;9.14184224;2022-11-13T12:15:43;23.07;;;14.60;;
215;SDS011;64590;48.81286795;9.14184224;2022-11-13T12:18:39;23.70;;;14.50;;
215;SDS011;64590;48.81286795;9.14184224;2022-11-13T12:21:36;23.27;;;14.30;;
215;SDS011;64590;48.81286795;9.14184224;2022-11-13T12:24:36;22.73;;;14.50;;
215;SDS011;64590;48.81286795;9.14184224;2022-11-13T12:27:45;22.27;;;14.47;;
215;SDS011;64590;48.81286795;9.14184224;2022-11-13T12:30:35;19.07;;;11.80;;
215;SDS011;64590;48.81286795;9.14184224;2022-11-13T12:33:31;22.40;;;13.03;;
215;SDS011;64590;48.81286795;9.14184224;2022-11-13T12:36:21;17.83;;;11.13;;
215;SDS011;64590;48.81286795;9.14184224;2022-11-13T12:39:21;18.43;;;11.30;;
215;SDS011;64590;48.81286795;9.14184224;2022-11-13T12:42:20;19.73;;;13.13;;
215;SDS011;64590;48.81286795;9.14184224;2022-11-13T12:45:15;19.37;;;12.70;;
215;SDS011;64590;48.81286795;9.14184224;2022-11-13T12:48:08;19.33;;;12.43;;
215;SDS011;64590;48.81286795;9.14184224;2022-11-13T12:50:57;20.23;;;13.10;;
215;SDS011;64590;48.81286795;9.14184224;2022-11-13T12:53:45;21.77;;;13.13;;
215;SDS011;64590;48.81286795;9.14184224;2022-11-13T12:56:32;19.83;;;12.73;;
215;SDS011;64590;48.81286795;9.14184224;2022-11-13T12:59:29;20.53;;;13.47;;
215;SDS011;64590;48.81286795;9.14184224;2022-11-13T13:02:21;19.83;;;13.00;;
215;SDS011;64590;48.81286795;9.14184224;2022-11-13T13:05:18;27.03;;;13.07;;
215;SDS011;64590;48.81286795;9.14184224;2022-11-13T13:08:16;19.77;;;12.97;;
215;SDS011;64590;48.81286795;9.14184224;2022-11-13T13:11:15;19.43;;;12.50;;
215;SDS011;64590;48.81286795;9.14184224;2022-11-13T13:14:10;20.17;;;13.10;;
215;SDS011;64590;48.81286795;9.14184224;2022-11-13T13:17:21;21.03;;;13.70;;
215;SDS011;64590;48.81286795;9.14184224;2022-11-13T13:23:24;21.40;;;13.60;;
215;SDS011;64590;48.81286795;9.14184224;2022-11-13T13:26:14;19.90;;;13.30;;
215;SDS011;64590;48.81286795;9.14184224;2022-11-13T13:29:11;25.97;;;13.60;;
215;SDS011;64590;48.81286795;9.14184224;2022-11-13T13:32:05;19.80;;;12.70;;
215;SDS011;64590;48.81286795;9.14184224;2022-11-13T13:34:59;18.40;;;11.70;;
215;SDS011;64590;48.81286795;9.14184224;2022-11-13T13:37:51;18.80;;;12.17;;
215;SDS011;64590;48.81286795;9.14184224;2022-11-13T13:40:46;19.97;;;12.57;;
215;SDS011;64590;48.81286795;9.14184224;2022-11-13T13:43:45;19.37;;;12.10;;
215;SDS011;64590;48.81286795;9.14184224;2022-11-13T13:46:40;18.43;;;12.17;;
215;SDS011;64590;48.81286795;9.14184224;2022-11-13T13:49:27;19.53;;;12.37;;
215;SDS011;64590;48.81286795;9.14184224;2022-11-13T13:52:13;25.13;;;12.77;;
215;SDS011;64590;48.81286795;9.14184224;2022-11-13T13:54:59;19.80;;;13.10;;
215;SDS011;64590;48.81286795;9.14184224;2022-11-13T13:57:46;18.60;;;12.30;;
215;SDS011;64590;48.81286795;9.14184224;2022-11-13T14:00:32;20.63;;;13.03;;
215;SDS011;64590;48.81286795;9.14184224;2022-11-13T14:03:18;20.27;;;13.13;;
215;SDS011;64590;48.81286795;9.14184224;2022-11-13T14:06:13;21.23;;;13.13;;
215;SDS011;64590;48.81286795;9.14184224;2022-11-13T14:09:06;23.70;;;13.10;;
215;SDS011;64590;48.81286795;9.14184224;2022-11-13T14:15:39;20.07;;;12.87;;
215;SDS011;64590;48.81286795;9.14184224;2022-11-13T14:18:24;22.60;;;13.10;;
215;SDS011;64590;48.81286795;9.14184224;2022-11-13T14:21:13;20.70;;;13.67;;
215;SDS011;64590;48.81286795;9.14184224;2022-11-13T14:24:02;21.53;;;13.33;;
215;SDS011;64590;48.81286795;9.14184224;2022-11-13T14:26:48;19.40;;;12.70;;
215;SDS011;64590;48.81286795;9.14184224;2022-11-13T14:29:38;21.67;;;13.40;;
215;SDS011;64590;48.81286795;9.14184224;2022-11-13T14:32:30;21.03;;;13.93;;
215;SDS011;64590;48.81286795;9.14184224;2022-11-13T14:35:18;21.90;;;13.60;;
215;SDS011;64590;48.81286795;9.14184224;2022-11-13T14:38:14;20.97;;;13.90;;
215;SDS011;64590;48.81286795;9.14184224;2022-11-13T14:41:04;22.57;;;13.70;;
215;SDS011;64590;48.81286795;9.14184224;2022-11-13T14:43:50;20.67;;;13.57;;
215;SDS011;64590;48.81286795;9.14184224;2022-11-13T14:46:37;20.67;;;13.93;;
215;SDS011;64590;48.81286795;9.14184224;2022-11-13T14:49:27;21.77;;;13.67;;